sensor_id;sensor_type;location;lat;lon;timestamp;temperature;humidity
10175;DHT22;18221;38.704;0.152;2022-10-31T00:27:44;18.60;99.90
10175;DHT22;18221;38.704;0.152;2022-10-31T00:30:12;18.70;99.90
10175;DHT22;18221;38.704;0.152;2022-10-31T00:32:40;18.60;99.90
10175;DHT22;18221;38.704;0.152;2022-10-31T00:35:08;18.60;99.90
10175;DHT22;18221;38.704;0.152;2022-10-31T00:37:36;18.60;99.90
10175;DHT22;18221;38.704;0.152;2022-10-31T00:40:05;18.60;99.90
10175;DHT22;18221;38.704;0.152;2022-10-31T00:42:34;18.50;99.90
10175;DHT22;18221;38.704;0.152;2022-10-31T00:45:03;18.50;99.90
10175;DHT22;18221;38.704;0.152;2022-10-31T00:47:31;18.50;99.90
10175;DHT22;18221;38.704;0.152;2022-10-31T00:49:59;18.50;99.90
10175;DHT22;18221;38.704;0.152;2022-10-31T00:52:27;18.50;99.90
10175;DHT22;18221;38.704;0.152;2022-10-31T00:54:55;18.50;99.90
10175;DHT22;18221;38.704;0.152;2022-10-31T00:57:23;18.50;99.90
10175;DHT22;18221;38.704;0.152;2022-10-31T00:59:51;18.50;99.90
10175;DHT22;18221;38.704;0.152;2022-10-31T01:02:20;18.40;99.90
10175;DHT22;18221;38.704;0.152;2022-10-31T01:04:48;18.50;99.90
10175;DHT22;18221;38.704;0.152;2022-10-31T01:07:15;18.50;99.90
10175;DHT22;18221;38.704;0.152;2022-10-31T01:09:43;18.60;99.90
10175;DHT22;18221;38.704;0.152;2022-10-31T01:12:11;18.60;99.90
10175;DHT22;18221;38.704;0.152;2022-10-31T01:14:43;18.60;99.90
10175;DHT22;18221;38.704;0.152;2022-10-31T01:17:11;18.60;99.90
10175;DHT22;18221;38.704;0.152;2022-10-31T01:19:41;18.60;99.90
10175;DHT22;18221;38.704;0.152;2022-10-31T01:22:09;18.70;99.90
10175;DHT22;18221;38.704;0.152;2022-10-31T01:24:37;18.70;99.90
10175;DHT22;18221;38.704;0.152;2022-10-31T01:27:04;18.70;99.90
10175;DHT22;18221;38.704;0.152;2022-10-31T01:29:32;18.70;99.90
10175;DHT22;18221;38.704;0.152;2022-10-31T01:32:00;18.70;99.90
10175;DHT22;18221;38.704;0.152;2022-10-31T01:34:28;18.70;99.90
10175;DHT22;18221;38.704;0.152;2022-10-31T01:36:58;18.60;99.90
10175;DHT22;18221;38.704;0.152;2022-10-31T01:39:25;18.60;99.90
10175;DHT22;18221;38.704;0.152;2022-10-31T01:41:54;18.60;99.90
10175;DHT22;18221;38.704;0.152;2022-10-31T01:44:50;18.70;99.90
10175;DHT22;18221;38.704;0.152;2022-10-31T01:47:34;18.60;99.90
10175;DHT22;18221;38.704;0.152;2022-10-31T01:50:14;18.60;99.90
10175;DHT22;18221;38.704;0.152;2022-10-31T01:52:52;18.60;99.90
10175;DHT22;18221;38.704;0.152;2022-10-31T01:55:23;18.50;99.90
10175;DHT22;18221;38.704;0.152;2022-10-31T01:57:56;18.50;99.90
10175;DHT22;18221;38.704;0.152;2022-10-31T02:00:28;18.50;99.90
10175;DHT22;18221;38.704;0.152;2022-10-31T02:02:57;18.40;99.90
10175;DHT22;18221;38.704;0.152;2022-10-31T02:05:28;18.40;99.90
10175;DHT22;18221;38.704;0.152;2022-10-31T02:08:02;18.40;99.90
10175;DHT22;18221;38.704;0.152;2022-10-31T02:10:36;18.40;99.90
10175;DHT22;18221;38.704;0.152;2022-10-31T02:13:06;18.30;99.90
10175;DHT22;18221;38.704;0.152;2022-10-31T02:15:36;18.30;99.90
10175;DHT22;18221;38.704;0.152;2022-10-31T02:18:05;18.30;99.90
10175;DHT22;18221;38.704;0.152;2022-10-31T02:20:41;18.30;99.90
10175;DHT22;18221;38.704;0.152;2022-10-31T02:27:07;18.30;99.90
10175;DHT22;18221;38.704;0.152;2022-10-31T02:30:00;18.30;99.90
10175;DHT22;18221;38.704;0.152;2022-10-31T02:32:59;18.30;99.90
10175;DHT22;18221;38.704;0.152;2022-10-31T02:35:51;18.20;99.90
10175;DHT22;18221;38.704;0.152;2022-10-31T02:38:36;18.20;99.90
10175;DHT22;18221;38.704;0.152;2022-10-31T02:41:16;18.20;99.90
10175;DHT22;18221;38.704;0.152;2022-10-31T02:43:56;18.20;99.90
10175;DHT22;18221;38.704;0.152;2022-10-31T02:46:34;18.20;99.90
10175;DHT22;18221;38.704;0.152;2022-10-31T02:49:14;18.20;99.90
10175;DHT22;18221;38.704;0.152;2022-10-31T02:51:49;18.20;99.90
10175;DHT22;18221;38.704;0.152;2022-10-31T02:54:22;18.20;99.90
10175;DHT22;18221;38.704;0.152;2022-10-31T02:56:54;18.20;99.90
10175;DHT22;18221;38.704;0.152;2022-10-31T02:59:28;18.20;99.90
10175;DHT22;18221;38.704;0.152;2022-10-31T03:08:22;18.10;99.90
10175;DHT22;18221;38.704;0.152;2022-10-31T03:10:58;18.20;99.90
10175;DHT22;18221;38.704;0.152;2022-10-31T03:13:34;18.20;99.90
10175;DHT22;18221;38.704;0.152;2022-10-31T03:16:11;18.10;99.90
10175;DHT22;18221;38.704;0.152;2022-10-31T03:18:47;18.20;99.90
10175;DHT22;18221;38.704;0.152;2022-10-31T03:21:22;18.10;99.90
10175;DHT22;18221;38.704;0.152;2022-10-31T03:23:56;18.20;99.90
10175;DHT22;18221;38.704;0.152;2022-10-31T03:26:26;18.20;99.90
10175;DHT22;18221;38.704;0.152;2022-10-31T03:28:58;18.20;99.90
10175;DHT22;18221;38.704;0.152;2022-10-31T03:31:33;18.20;99.90
10175;DHT22;18221;38.704;0.152;2022-10-31T03:34:05;18.20;99.90
10175;DHT22;18221;38.704;0.152;2022-10-31T03:36:38;18.20;99.90
10175;DHT22;18221;38.704;0.152;2022-10-31T03:39:11;18.20;99.90
10175;DHT22;18221;38.704;0.152;2022-10-31T03:41:44;18.20;99.90
10175;DHT22;18221;38.704;0.152;2022-10-31T03:44:17;18.20;99.90
10175;DHT22;18221;38.704;0.152;2022-10-31T03:46:48;18.20;99.90
10175;DHT22;18221;38.704;0.152;2022-10-31T03:49:16;18.20;99.90
10175;DHT22;18221;38.704;0.152;2022-10-31T03:51:49;18.20;99.90
10175;DHT22;18221;38.704;0.152;2022-10-31T03:54:25;18.20;99.90
10175;DHT22;18221;38.704;0.152;2022-10-31T03:56:59;18.20;99.90
10175;DHT22;18221;38.704;0.152;2022-10-31T03:59:34;18.20;99.90
10175;DHT22;18221;38.704;0.152;2022-10-31T04:02:10;18.20;99.90
10175;DHT22;18221;38.704;0.152;2022-10-31T04:04:43;18.10;99.90
10175;DHT22;18221;38.704;0.152;2022-10-31T04:07:15;18.10;99.90
10175;DHT22;18221;38.704;0.152;2022-10-31T04:09:46;18.10;99.90
10175;DHT22;18221;38.704;0.152;2022-10-31T04:12:17;18.10;99.90
10175;DHT22;18221;38.704;0.152;2022-10-31T04:14:49;18.10;99.90
10175;DHT22;18221;38.704;0.152;2022-10-31T04:17:21;18.10;99.90
10175;DHT22;18221;38.704;0.152;2022-10-31T04:19:50;18.10;99.90
10175;DHT22;18221;38.704;0.152;2022-10-31T04:22:20;18.00;99.90
10175;DHT22;18221;38.704;0.152;2022-10-31T04:24:48;18.00;99.90
10175;DHT22;18221;38.704;0.152;2022-10-31T04:27:15;18.10;99.90
10175;DHT22;18221;38.704;0.152;2022-10-31T04:29:43;18.10;99.90
10175;DHT22;18221;38.704;0.152;2022-10-31T04:32:11;18.10;99.90
10175;DHT22;18221;38.704;0.152;2022-10-31T04:34:39;18.10;99.90
10175;DHT22;18221;38.704;0.152;2022-10-31T04:37:07;18.20;99.90
10175;DHT22;18221;38.704;0.152;2022-10-31T04:39:36;18.20;99.90
10175;DHT22;18221;38.704;0.152;2022-10-31T04:42:04;18.20;99.90
10175;DHT22;18221;38.704;0.152;2022-10-31T04:44:32;18.20;99.90
10175;DHT22;18221;38.704;0.152;2022-10-31T04:47:00;18.20;99.90
10175;DHT22;18221;38.704;0.152;2022-10-31T04:49:27;18.20;99.90
10175;DHT22;18221;38.704;0.152;2022-10-31T04:51:55;18.20;99.90
10175;DHT22;18221;38.704;0.152;2022-10-31T04:54:23;18.20;99.90
10175;DHT22;18221;38.704;0.152;2022-10-31T04:56:52;18.20;99.90
10175;DHT22;18221;38.704;0.152;2022-10-31T04:59:20;18.20;99.90
10175;DHT22;18221;38.704;0.152;2022-10-31T05:01:48;18.30;99.90
10175;DHT22;18221;38.704;0.152;2022-10-31T05:04:16;17.90;99.90
10175;DHT22;18221;38.704;0.152;2022-10-31T05:06:44;18.30;99.90
10175;DHT22;18221;38.704;0.152;2022-10-31T05:09:11;18.30;99.90
10175;DHT22;18221;38.704;0.152;2022-10-31T05:11:39;18.20;99.90
10175;DHT22;18221;38.704;0.152;2022-10-31T05:14:09;18.20;99.90
10175;DHT22;18221;38.704;0.152;2022-10-31T05:16:36;18.20;99.90
10175;DHT22;18221;38.704;0.152;2022-10-31T05:19:04;18.20;99.90
10175;DHT22;18221;38.704;0.152;2022-10-31T05:21:32;18.20;99.90
10175;DHT22;18221;38.704;0.152;2022-10-31T05:24:00;18.20;99.90
10175;DHT22;18221;38.704;0.152;2022-10-31T05:26:28;18.10;99.90
10175;DHT22;18221;38.704;0.152;2022-10-31T05:28:56;18.10;99.90
10175;DHT22;18221;38.704;0.152;2022-10-31T05:31:25;18.10;99.90
10175;DHT22;18221;38.704;0.152;2022-10-31T05:33:53;17.30;99.90
10175;DHT22;18221;38.704;0.152;2022-10-31T05:36:21;18.10;99.90
10175;DHT22;18221;38.704;0.152;2022-10-31T05:38:48;18.10;99.90
10175;DHT22;18221;38.704;0.152;2022-10-31T05:41:16;18.10;99.90
10175;DHT22;18221;38.704;0.152;2022-10-31T05:43:45;18.00;99.90
10175;DHT22;18221;38.704;0.152;2022-10-31T05:46:13;18.00;99.90
10175;DHT22;18221;38.704;0.152;2022-10-31T05:48:42;18.00;99.90
10175;DHT22;18221;38.704;0.152;2022-10-31T05:51:10;18.00;99.90
10175;DHT22;18221;38.704;0.152;2022-10-31T05:53:39;18.00;99.90
10175;DHT22;18221;38.704;0.152;2022-10-31T05:56:07;17.70;99.90
10175;DHT22;18221;38.704;0.152;2022-10-31T05:58:35;18.00;99.90
10175;DHT22;18221;38.704;0.152;2022-10-31T06:01:03;18.00;99.90
10175;DHT22;18221;38.704;0.152;2022-10-31T06:03:31;18.00;99.90
10175;DHT22;18221;38.704;0.152;2022-10-31T06:06:00;18.00;99.90
10175;DHT22;18221;38.704;0.152;2022-10-31T06:08:28;18.00;99.90
10175;DHT22;18221;38.704;0.152;2022-10-31T06:10:56;18.00;99.90
10175;DHT22;18221;38.704;0.152;2022-10-31T06:13:24;18.00;99.90
10175;DHT22;18221;38.704;0.152;2022-10-31T06:15:51;18.00;99.90
10175;DHT22;18221;38.704;0.152;2022-10-31T06:18:19;18.00;99.90
10175;DHT22;18221;38.704;0.152;2022-10-31T06:20:47;18.00;99.90
10175;DHT22;18221;38.704;0.152;2022-10-31T06:23:17;18.00;99.90
10175;DHT22;18221;38.704;0.152;2022-10-31T06:25:49;18.00;99.90
10175;DHT22;18221;38.704;0.152;2022-10-31T06:28:17;18.00;99.90
10175;DHT22;18221;38.704;0.152;2022-10-31T06:30:46;18.00;99.90
10175;DHT22;18221;38.704;0.152;2022-10-31T06:33:13;18.00;99.90
10175;DHT22;18221;38.704;0.152;2022-10-31T06:35:45;17.90;99.90
10175;DHT22;18221;38.704;0.152;2022-10-31T06:38:13;17.90;99.90
10175;DHT22;18221;38.704;0.152;2022-10-31T06:40:43;18.00;99.90
10175;DHT22;18221;38.704;0.152;2022-10-31T06:43:11;18.00;99.90
10175;DHT22;18221;38.704;0.152;2022-10-31T06:45:40;18.00;99.90
10175;DHT22;18221;38.704;0.152;2022-10-31T06:48:08;18.00;99.90
10175;DHT22;18221;38.704;0.152;2022-10-31T06:50:36;18.00;99.90
10175;DHT22;18221;38.704;0.152;2022-10-31T06:53:04;18.00;99.90
10175;DHT22;18221;38.704;0.152;2022-10-31T06:55:33;18.00;99.90
10175;DHT22;18221;38.704;0.152;2022-10-31T06:58:01;18.00;99.90
10175;DHT22;18221;38.704;0.152;2022-10-31T07:00:30;18.00;99.90
10175;DHT22;18221;38.704;0.152;2022-10-31T07:02:59;18.00;99.90
10175;DHT22;18221;38.704;0.152;2022-10-31T07:05:29;18.00;99.90
10175;DHT22;18221;38.704;0.152;2022-10-31T07:07:59;18.00;99.90
10175;DHT22;18221;38.704;0.152;2022-10-31T07:10:31;18.10;99.90
10175;DHT22;18221;38.704;0.152;2022-10-31T07:13:03;18.10;99.90
10175;DHT22;18221;38.704;0.152;2022-10-31T07:15:34;18.10;99.90
10175;DHT22;18221;38.704;0.152;2022-10-31T07:18:05;18.20;99.90
10175;DHT22;18221;38.704;0.152;2022-10-31T07:20:34;18.20;99.90
10175;DHT22;18221;38.704;0.152;2022-10-31T07:23:03;18.20;99.90
10175;DHT22;18221;38.704;0.152;2022-10-31T07:25:31;18.30;99.90
10175;DHT22;18221;38.704;0.152;2022-10-31T07:28:00;18.40;99.90
10175;DHT22;18221;38.704;0.152;2022-10-31T07:30:28;18.40;99.90
10175;DHT22;18221;38.704;0.152;2022-10-31T07:32:56;18.40;99.90
10175;DHT22;18221;38.704;0.152;2022-10-31T07:35:25;18.50;99.90
10175;DHT22;18221;38.704;0.152;2022-10-31T07:37:55;18.50;99.90
10175;DHT22;18221;38.704;0.152;2022-10-31T07:40:23;18.60;99.90
10175;DHT22;18221;38.704;0.152;2022-10-31T07:42:53;18.70;99.90
10175;DHT22;18221;38.704;0.152;2022-10-31T07:45:22;18.70;99.90
10175;DHT22;18221;38.704;0.152;2022-10-31T07:47:51;18.80;99.90
10175;DHT22;18221;38.704;0.152;2022-10-31T07:50:21;18.90;99.90
10175;DHT22;18221;38.704;0.152;2022-10-31T07:52:58;19.00;99.90
10175;DHT22;18221;38.704;0.152;2022-10-31T07:55:27;19.00;99.90
10175;DHT22;18221;38.704;0.152;2022-10-31T07:57:57;19.10;99.90
10175;DHT22;18221;38.704;0.152;2022-10-31T08:00:27;19.10;99.90
10175;DHT22;18221;38.704;0.152;2022-10-31T08:02:59;19.10;99.90
10175;DHT22;18221;38.704;0.152;2022-10-31T08:05:28;19.20;99.90
10175;DHT22;18221;38.704;0.152;2022-10-31T08:07:57;19.20;99.90
10175;DHT22;18221;38.704;0.152;2022-10-31T08:10:25;19.30;99.90
10175;DHT22;18221;38.704;0.152;2022-10-31T08:12:58;19.30;99.90
10175;DHT22;18221;38.704;0.152;2022-10-31T08:15:29;19.40;99.90
10175;DHT22;18221;38.704;0.152;2022-10-31T08:17:57;19.50;99.90
10175;DHT22;18221;38.704;0.152;2022-10-31T08:20:25;19.50;99.90
10175;DHT22;18221;38.704;0.152;2022-10-31T08:22:57;19.50;99.90
10175;DHT22;18221;38.704;0.152;2022-10-31T08:25:27;19.60;99.90
10175;DHT22;18221;38.704;0.152;2022-10-31T08:27:56;19.70;99.90
10175;DHT22;18221;38.704;0.152;2022-10-31T08:30:26;19.70;99.90
10175;DHT22;18221;38.704;0.152;2022-10-31T08:33:00;19.70;99.90
10175;DHT22;18221;38.704;0.152;2022-10-31T08:35:29;19.80;99.90
10175;DHT22;18221;38.704;0.152;2022-10-31T08:37:58;19.80;99.90
10175;DHT22;18221;38.704;0.152;2022-10-31T08:40:27;19.80;99.90
10175;DHT22;18221;38.704;0.152;2022-10-31T08:42:58;19.80;99.90
10175;DHT22;18221;38.704;0.152;2022-10-31T08:45:29;19.70;99.90
10175;DHT22;18221;38.704;0.152;2022-10-31T08:47:59;19.70;99.90
10175;DHT22;18221;38.704;0.152;2022-10-31T08:50:29;19.70;99.90
10175;DHT22;18221;38.704;0.152;2022-10-31T08:53:02;19.70;99.90
10175;DHT22;18221;38.704;0.152;2022-10-31T08:55:32;19.70;99.90
10175;DHT22;18221;38.704;0.152;2022-10-31T08:58:00;19.80;99.90
10175;DHT22;18221;38.704;0.152;2022-10-31T09:00:31;19.90;99.90
10175;DHT22;18221;38.704;0.152;2022-10-31T09:03:00;20.00;99.90
10175;DHT22;18221;38.704;0.152;2022-10-31T09:05:29;20.10;99.90
10175;DHT22;18221;38.704;0.152;2022-10-31T09:07:58;20.10;99.90
10175;DHT22;18221;38.704;0.152;2022-10-31T09:10:28;20.20;99.90
10175;DHT22;18221;38.704;0.152;2022-10-31T09:12:57;20.20;99.90
10175;DHT22;18221;38.704;0.152;2022-10-31T09:15:26;20.20;99.90
10175;DHT22;18221;38.704;0.152;2022-10-31T09:17:56;20.20;99.90
10175;DHT22;18221;38.704;0.152;2022-10-31T09:20:24;20.20;99.90
10175;DHT22;18221;38.704;0.152;2022-10-31T09:22:56;20.20;99.90
10175;DHT22;18221;38.704;0.152;2022-10-31T09:25:25;20.30;99.90
10175;DHT22;18221;38.704;0.152;2022-10-31T09:27:56;20.30;99.90
10175;DHT22;18221;38.704;0.152;2022-10-31T09:30:24;20.30;99.90
10175;DHT22;18221;38.704;0.152;2022-10-31T09:32:59;20.30;99.90
10175;DHT22;18221;38.704;0.152;2022-10-31T09:35:28;20.30;99.90
10175;DHT22;18221;38.704;0.152;2022-10-31T09:37:56;20.30;99.90
10175;DHT22;18221;38.704;0.152;2022-10-31T09:40:29;20.30;99.90
10175;DHT22;18221;38.704;0.152;2022-10-31T09:43:07;20.30;99.90
10175;DHT22;18221;38.704;0.152;2022-10-31T09:45:47;20.30;99.90
10175;DHT22;18221;38.704;0.152;2022-10-31T09:48:45;20.30;99.90
10175;DHT22;18221;38.704;0.152;2022-10-31T09:51:25;20.40;99.90
10175;DHT22;18221;38.704;0.152;2022-10-31T09:54:02;20.50;99.90
10175;DHT22;18221;38.704;0.152;2022-10-31T09:56:33;20.60;99.90
10175;DHT22;18221;38.704;0.152;2022-10-31T09:59:04;20.60;99.90
10175;DHT22;18221;38.704;0.152;2022-10-31T10:01:45;20.70;99.90
10175;DHT22;18221;38.704;0.152;2022-10-31T10:04:36;20.70;99.90
10175;DHT22;18221;38.704;0.152;2022-10-31T10:07:16;20.70;99.90
10175;DHT22;18221;38.704;0.152;2022-10-31T10:09:49;20.70;99.90
10175;DHT22;18221;38.704;0.152;2022-10-31T10:12:31;20.70;99.90
10175;DHT22;18221;38.704;0.152;2022-10-31T10:15:31;20.80;99.90
10175;DHT22;18221;38.704;0.152;2022-10-31T10:18:19;20.80;99.90
10175;DHT22;18221;38.704;0.152;2022-10-31T10:21:01;20.90;99.90
10175;DHT22;18221;38.704;0.152;2022-10-31T10:23:52;21.70;99.90
10175;DHT22;18221;38.704;0.152;2022-10-31T10:26:34;21.10;99.90
10175;DHT22;18221;38.704;0.152;2022-10-31T10:29:10;20.90;99.90
10175;DHT22;18221;38.704;0.152;2022-10-31T10:31:50;20.90;99.90
10175;DHT22;18221;38.704;0.152;2022-10-31T10:34:24;21.00;99.90
10175;DHT22;18221;38.704;0.152;2022-10-31T10:37:02;21.00;99.90
10175;DHT22;18221;38.704;0.152;2022-10-31T10:39:36;21.10;99.90
10175;DHT22;18221;38.704;0.152;2022-10-31T10:42:12;21.10;99.90
10175;DHT22;18221;38.704;0.152;2022-10-31T10:44:59;21.20;99.90
10175;DHT22;18221;38.704;0.152;2022-10-31T10:47:52;21.30;99.90
10175;DHT22;18221;38.704;0.152;2022-10-31T10:50:35;21.40;99.90
10175;DHT22;18221;38.704;0.152;2022-10-31T10:56:34;21.60;99.90
10175;DHT22;18221;38.704;0.152;2022-10-31T10:59:11;21.70;99.90
10175;DHT22;18221;38.704;0.152;2022-10-31T11:01:42;21.70;99.90
10175;DHT22;18221;38.704;0.152;2022-10-31T11:04:26;21.80;99.90
10175;DHT22;18221;38.704;0.152;2022-10-31T11:06:58;21.80;99.90
10175;DHT22;18221;38.704;0.152;2022-10-31T11:09:28;21.80;99.90
10175;DHT22;18221;38.704;0.152;2022-10-31T11:11:57;21.70;99.90
10175;DHT22;18221;38.704;0.152;2022-10-31T11:14:26;21.80;99.90
10175;DHT22;18221;38.704;0.152;2022-10-31T11:17:07;21.70;99.90
10175;DHT22;18221;38.704;0.152;2022-10-31T11:19:38;21.60;99.90
10175;DHT22;18221;38.704;0.152;2022-10-31T11:22:07;21.60;99.90
10175;DHT22;18221;38.704;0.152;2022-10-31T11:24:43;21.60;99.90
10175;DHT22;18221;38.704;0.152;2022-10-31T11:27:16;21.60;99.90
10175;DHT22;18221;38.704;0.152;2022-10-31T11:29:47;21.50;99.90
10175;DHT22;18221;38.704;0.152;2022-10-31T11:32:19;21.50;99.90
10175;DHT22;18221;38.704;0.152;2022-10-31T11:34:50;21.60;99.90
10175;DHT22;18221;38.704;0.152;2022-10-31T11:37:24;21.70;99.90
10175;DHT22;18221;38.704;0.152;2022-10-31T11:39:57;21.80;99.90
10175;DHT22;18221;38.704;0.152;2022-10-31T11:42:29;21.80;99.90
10175;DHT22;18221;38.704;0.152;2022-10-31T11:45:13;22.00;99.90
10175;DHT22;18221;38.704;0.152;2022-10-31T11:47:45;22.10;99.90
10175;DHT22;18221;38.704;0.152;2022-10-31T11:50:20;22.20;99.90
10175;DHT22;18221;38.704;0.152;2022-10-31T11:52:52;22.20;99.90
10175;DHT22;18221;38.704;0.152;2022-10-31T11:55:32;22.10;99.90
10175;DHT22;18221;38.704;0.152;2022-10-31T11:58:01;22.00;99.90
10175;DHT22;18221;38.704;0.152;2022-10-31T12:00:31;22.10;99.90
10175;DHT22;18221;38.704;0.152;2022-10-31T12:03:18;22.30;99.90
10175;DHT22;18221;38.704;0.152;2022-10-31T12:06:02;22.30;99.90
10175;DHT22;18221;38.704;0.152;2022-10-31T12:08:34;22.30;99.90
10175;DHT22;18221;38.704;0.152;2022-10-31T12:11:11;22.30;99.90
10175;DHT22;18221;38.704;0.152;2022-10-31T12:13:59;22.30;99.90
10175;DHT22;18221;38.704;0.152;2022-10-31T12:16:39;22.30;99.90
10175;DHT22;18221;38.704;0.152;2022-10-31T12:19:20;22.30;99.90
10175;DHT22;18221;38.704;0.152;2022-10-31T12:22:08;22.20;99.90
10175;DHT22;18221;38.704;0.152;2022-10-31T12:25:06;22.30;99.90
10175;DHT22;18221;38.704;0.152;2022-10-31T12:28:02;22.30;99.90
10175;DHT22;18221;38.704;0.152;2022-10-31T12:30:50;22.20;99.90
10175;DHT22;18221;38.704;0.152;2022-10-31T12:33:39;22.10;99.90
10175;DHT22;18221;38.704;0.152;2022-10-31T12:36:26;22.10;99.90
10175;DHT22;18221;38.704;0.152;2022-10-31T12:39:23;22.00;99.90
10175;DHT22;18221;38.704;0.152;2022-10-31T12:42:01;21.10;99.90
10175;DHT22;18221;38.704;0.152;2022-10-31T12:44:57;22.20;99.90
10175;DHT22;18221;38.704;0.152;2022-10-31T12:47:57;22.30;99.90
10175;DHT22;18221;38.704;0.152;2022-10-31T12:50:49;22.40;99.90
10175;DHT22;18221;38.704;0.152;2022-10-31T12:53:35;22.40;99.90
10175;DHT22;18221;38.704;0.152;2022-10-31T12:56:26;22.40;99.90
10175;DHT22;18221;38.704;0.152;2022-10-31T12:59:10;22.30;99.90
10175;DHT22;18221;38.704;0.152;2022-10-31T13:01:49;22.40;99.90
10175;DHT22;18221;38.704;0.152;2022-10-31T13:04:36;22.50;99.90
10175;DHT22;18221;38.704;0.152;2022-10-31T13:07:13;22.50;99.90
10175;DHT22;18221;38.704;0.152;2022-10-31T13:09:50;22.40;99.90
10175;DHT22;18221;38.704;0.152;2022-10-31T13:12:24;22.40;99.90
10175;DHT22;18221;38.704;0.152;2022-10-31T13:14:57;22.40;99.90
10175;DHT22;18221;38.704;0.152;2022-10-31T13:17:33;22.30;99.90
10175;DHT22;18221;38.704;0.152;2022-10-31T13:20:21;22.20;99.90
10175;DHT22;18221;38.704;0.152;2022-10-31T13:22:55;22.20;99.90
10175;DHT22;18221;38.704;0.152;2022-10-31T13:25:33;22.30;99.90
10175;DHT22;18221;38.704;0.152;2022-10-31T13:28:15;22.50;99.90
10175;DHT22;18221;38.704;0.152;2022-10-31T13:30:53;22.50;99.90
10175;DHT22;18221;38.704;0.152;2022-10-31T13:33:25;22.50;99.90
10175;DHT22;18221;38.704;0.152;2022-10-31T13:36:07;22.40;99.90
10175;DHT22;18221;38.704;0.152;2022-10-31T13:38:52;22.40;99.90
10175;DHT22;18221;38.704;0.152;2022-10-31T13:41:33;22.40;99.90
10175;DHT22;18221;38.704;0.152;2022-10-31T13:44:13;22.30;99.90
10175;DHT22;18221;38.704;0.152;2022-10-31T13:46:44;22.30;99.90
10175;DHT22;18221;38.704;0.152;2022-10-31T13:49:38;22.30;99.90
10175;DHT22;18221;38.704;0.152;2022-10-31T13:52:14;22.20;99.90
10175;DHT22;18221;38.704;0.152;2022-10-31T13:54:45;22.30;99.90
10175;DHT22;18221;38.704;0.152;2022-10-31T13:57:17;22.40;99.90
10175;DHT22;18221;38.704;0.152;2022-10-31T13:59:50;22.30;99.90
10175;DHT22;18221;38.704;0.152;2022-10-31T14:02:25;22.30;99.90
10175;DHT22;18221;38.704;0.152;2022-10-31T14:04:58;22.30;99.90
10175;DHT22;18221;38.704;0.152;2022-10-31T14:07:29;22.20;99.90
10175;DHT22;18221;38.704;0.152;2022-10-31T14:10:02;22.10;99.90
10175;DHT22;18221;38.704;0.152;2022-10-31T14:12:35;22.10;99.90
10175;DHT22;18221;38.704;0.152;2022-10-31T14:15:13;22.10;99.90
10175;DHT22;18221;38.704;0.152;2022-10-31T14:17:47;22.10;99.90
10175;DHT22;18221;38.704;0.152;2022-10-31T14:20:40;22.00;99.90
10175;DHT22;18221;38.704;0.152;2022-10-31T14:26:31;22.10;99.90
10175;DHT22;18221;38.704;0.152;2022-10-31T14:29:22;21.90;99.90
10175;DHT22;18221;38.704;0.152;2022-10-31T14:32:01;21.80;99.90
10175;DHT22;18221;38.704;0.152;2022-10-31T14:34:41;21.70;99.90
10175;DHT22;18221;38.704;0.152;2022-10-31T14:37:37;21.70;99.90
10175;DHT22;18221;38.704;0.152;2022-10-31T14:40:26;21.60;99.90
10175;DHT22;18221;38.704;0.152;2022-10-31T14:43:21;21.60;99.90
10175;DHT22;18221;38.704;0.152;2022-10-31T14:46:18;21.60;99.90
10175;DHT22;18221;38.704;0.152;2022-10-31T14:49:12;21.60;99.90
10175;DHT22;18221;38.704;0.152;2022-10-31T14:51:51;21.50;99.90
10175;DHT22;18221;38.704;0.152;2022-10-31T14:54:27;21.50;99.90
10175;DHT22;18221;38.704;0.152;2022-10-31T14:57:00;21.60;99.90
10175;DHT22;18221;38.704;0.152;2022-10-31T14:59:33;21.50;99.90
10175;DHT22;18221;38.704;0.152;2022-10-31T15:02:12;21.40;99.90
10175;DHT22;18221;38.704;0.152;2022-10-31T15:04:44;21.40;99.90
10175;DHT22;18221;38.704;0.152;2022-10-31T15:07:17;21.40;99.90
10175;DHT22;18221;38.704;0.152;2022-10-31T15:09:57;21.40;99.90
10175;DHT22;18221;38.704;0.152;2022-10-31T15:12:27;21.40;99.90
10175;DHT22;18221;38.704;0.152;2022-10-31T15:14:56;21.40;99.90
10175;DHT22;18221;38.704;0.152;2022-10-31T15:17:26;21.30;99.90
10175;DHT22;18221;38.704;0.152;2022-10-31T15:19:54;21.30;99.90
10175;DHT22;18221;38.704;0.152;2022-10-31T15:22:24;21.30;99.90
10175;DHT22;18221;38.704;0.152;2022-10-31T15:24:56;21.20;99.90
10175;DHT22;18221;38.704;0.152;2022-10-31T15:27:25;21.20;99.90
10175;DHT22;18221;38.704;0.152;2022-10-31T15:29:55;21.20;99.90
10175;DHT22;18221;38.704;0.152;2022-10-31T15:32:24;21.20;99.90
10175;DHT22;18221;38.704;0.152;2022-10-31T15:34:54;21.20;99.90
10175;DHT22;18221;38.704;0.152;2022-10-31T15:37:25;21.20;99.90
10175;DHT22;18221;38.704;0.152;2022-10-31T15:40:07;21.20;99.90
10175;DHT22;18221;38.704;0.152;2022-10-31T15:42:42;21.20;99.90
10175;DHT22;18221;38.704;0.152;2022-10-31T15:45:18;21.20;99.90
10175;DHT22;18221;38.704;0.152;2022-10-31T15:47:54;21.00;99.90
10175;DHT22;18221;38.704;0.152;2022-10-31T15:50:28;21.00;99.90
10175;DHT22;18221;38.704;0.152;2022-10-31T15:52:59;21.00;99.90
10175;DHT22;18221;38.704;0.152;2022-10-31T15:55:31;21.00;99.90
10175;DHT22;18221;38.704;0.152;2022-10-31T15:58:09;20.90;99.90
10175;DHT22;18221;38.704;0.152;2022-10-31T16:00:40;21.00;99.90
10175;DHT22;18221;38.704;0.152;2022-10-31T16:03:23;21.00;99.90
10175;DHT22;18221;38.704;0.152;2022-10-31T16:05:54;20.90;99.90
10175;DHT22;18221;38.704;0.152;2022-10-31T16:08:26;20.90;99.90
10175;DHT22;18221;38.704;0.152;2022-10-31T16:11:33;20.90;99.90
10175;DHT22;18221;38.704;0.152;2022-10-31T16:14:05;20.70;99.90
10175;DHT22;18221;38.704;0.152;2022-10-31T16:16:45;20.80;99.90
10175;DHT22;18221;38.704;0.152;2022-10-31T16:19:19;20.80;99.90
10175;DHT22;18221;38.704;0.152;2022-10-31T16:21:53;20.80;99.90
10175;DHT22;18221;38.704;0.152;2022-10-31T16:24:26;20.80;99.90
10175;DHT22;18221;38.704;0.152;2022-10-31T16:27:01;20.80;99.90
10175;DHT22;18221;38.704;0.152;2022-10-31T16:29:36;20.80;99.90
10175;DHT22;18221;38.704;0.152;2022-10-31T16:32:24;20.80;99.90
10175;DHT22;18221;38.704;0.152;2022-10-31T16:35:27;20.70;99.90
10175;DHT22;18221;38.704;0.152;2022-10-31T16:37:58;20.70;99.90
10175;DHT22;18221;38.704;0.152;2022-10-31T16:40:26;20.70;99.90
10175;DHT22;18221;38.704;0.152;2022-10-31T16:42:57;20.60;99.90
10175;DHT22;18221;38.704;0.152;2022-10-31T16:45:28;20.60;99.90
10175;DHT22;18221;38.704;0.152;2022-10-31T16:48:03;20.60;99.90
10175;DHT22;18221;38.704;0.152;2022-10-31T16:50:33;20.60;99.90
10175;DHT22;18221;38.704;0.152;2022-10-31T16:53:01;20.60;99.90
10175;DHT22;18221;38.704;0.152;2022-10-31T16:55:28;20.60;99.90